sensor_id;sensor_type;location;lat;lon;timestamp;P1;durP1;ratioP1;P2;durP2;ratioP2
10945;SDS011;5525;42.648;23.368;2022-11-15T00:00:09;32.85;;;20.15;;
10945;SDS011;5525;42.648;23.368;2022-11-15T00:02:36;40.30;;;24.35;;
10945;SDS011;5525;42.648;23.368;2022-11-15T00:05:03;51.08;;;31.35;;
10945;SDS011;5525;42.648;23.368;2022-11-15T00:07:30;43.80;;;26.63;;
10945;SDS011;5525;42.648;23.368;2022-11-15T00:09:57;47.63;;;29.83;;
10945;SDS011;5525;42.648;23.368;2022-11-15T00:12:24;52.10;;;31.35;;
10945;SDS011;5525;42.648;23.368;2022-11-15T00:14:50;53.08;;;33.65;;
10945;SDS011;5525;42.648;23.368;2022-11-15T00:17:19;49.92;;;29.95;;
10945;SDS011;5525;42.648;23.368;2022-11-15T00:19:46;44.55;;;27.63;;
10945;SDS011;5525;42.648;23.368;2022-11-15T00:22:13;46.92;;;26.85;;
10945;SDS011;5525;42.648;23.368;2022-11-15T00:24:40;52.25;;;31.92;;
10945;SDS011;5525;42.648;23.368;2022-11-15T00:27:07;50.90;;;30.98;;
10945;SDS011;5525;42.648;23.368;2022-11-15T00:29:34;50.80;;;31.77;;
10945;SDS011;5525;42.648;23.368;2022-11-15T00:32:02;54.45;;;32.38;;
10945;SDS011;5525;42.648;23.368;2022-11-15T00:34:30;52.45;;;30.80;;
10945;SDS011;5525;42.648;23.368;2022-11-15T00:36:57;48.53;;;29.25;;
10945;SDS011;5525;42.648;23.368;2022-11-15T00:39:24;46.38;;;29.20;;
10945;SDS011;5525;42.648;23.368;2022-11-15T00:41:51;45.88;;;27.35;;
10945;SDS011;5525;42.648;23.368;2022-11-15T00:44:18;42.72;;;26.73;;
10945;SDS011;5525;42.648;23.368;2022-11-15T00:46:45;44.28;;;27.50;;
10945;SDS011;5525;42.648;23.368;2022-11-15T00:49:12;44.42;;;28.02;;
10945;SDS011;5525;42.648;23.368;2022-11-15T00:51:40;46.97;;;28.08;;
10945;SDS011;5525;42.648;23.368;2022-11-15T00:54:06;45.50;;;27.45;;
10945;SDS011;5525;42.648;23.368;2022-11-15T00:56:33;43.60;;;27.05;;
10945;SDS011;5525;42.648;23.368;2022-11-15T00:59:00;45.78;;;28.85;;
10945;SDS011;5525;42.648;23.368;2022-11-15T01:01:27;50.60;;;29.77;;
10945;SDS011;5525;42.648;23.368;2022-11-15T01:03:53;44.47;;;27.42;;
10945;SDS011;5525;42.648;23.368;2022-11-15T01:06:20;45.47;;;28.30;;
10945;SDS011;5525;42.648;23.368;2022-11-15T01:08:48;44.00;;;27.45;;
10945;SDS011;5525;42.648;23.368;2022-11-15T01:11:15;48.75;;;29.25;;
10945;SDS011;5525;42.648;23.368;2022-11-15T01:13:42;51.72;;;32.17;;
10945;SDS011;5525;42.648;23.368;2022-11-15T01:16:10;53.50;;;33.53;;
10945;SDS011;5525;42.648;23.368;2022-11-15T01:18:39;56.35;;;32.45;;
10945;SDS011;5525;42.648;23.368;2022-11-15T01:21:07;54.90;;;34.00;;
10945;SDS011;5525;42.648;23.368;2022-11-15T01:23:35;54.55;;;33.28;;
10945;SDS011;5525;42.648;23.368;2022-11-15T01:26:04;54.47;;;33.38;;
10945;SDS011;5525;42.648;23.368;2022-11-15T01:28:36;63.35;;;36.60;;
10945;SDS011;5525;42.648;23.368;2022-11-15T01:31:05;61.05;;;38.35;;
10945;SDS011;5525;42.648;23.368;2022-11-15T01:33:34;56.08;;;33.65;;
10945;SDS011;5525;42.648;23.368;2022-11-15T01:36:03;59.40;;;36.75;;
10945;SDS011;5525;42.648;23.368;2022-11-15T01:38:30;63.03;;;38.25;;
10945;SDS011;5525;42.648;23.368;2022-11-15T01:40:57;64.30;;;38.58;;
10945;SDS011;5525;42.648;23.368;2022-11-15T01:43:26;65.68;;;39.38;;
10945;SDS011;5525;42.648;23.368;2022-11-15T01:45:55;66.88;;;40.08;;
10945;SDS011;5525;42.648;23.368;2022-11-15T01:48:25;65.35;;;38.92;;
10945;SDS011;5525;42.648;23.368;2022-11-15T01:50:58;57.55;;;35.17;;
10945;SDS011;5525;42.648;23.368;2022-11-15T01:53:26;60.70;;;35.60;;
10945;SDS011;5525;42.648;23.368;2022-11-15T01:55:53;54.60;;;32.70;;
10945;SDS011;5525;42.648;23.368;2022-11-15T01:58:20;53.70;;;34.25;;
10945;SDS011;5525;42.648;23.368;2022-11-15T02:00:49;55.38;;;33.17;;
10945;SDS011;5525;42.648;23.368;2022-11-15T02:03:17;60.22;;;37.00;;
10945;SDS011;5525;42.648;23.368;2022-11-15T02:05:46;81.90;;;47.63;;
10945;SDS011;5525;42.648;23.368;2022-11-15T02:08:13;61.33;;;37.38;;
10945;SDS011;5525;42.648;23.368;2022-11-15T02:10:45;62.70;;;37.00;;
10945;SDS011;5525;42.648;23.368;2022-11-15T02:13:12;68.95;;;40.50;;
10945;SDS011;5525;42.648;23.368;2022-11-15T02:15:40;57.08;;;34.35;;
10945;SDS011;5525;42.648;23.368;2022-11-15T02:18:18;65.63;;;38.28;;
10945;SDS011;5525;42.648;23.368;2022-11-15T02:20:56;60.75;;;37.92;;
10945;SDS011;5525;42.648;23.368;2022-11-15T02:26:46;62.33;;;37.13;;
10945;SDS011;5525;42.648;23.368;2022-11-15T02:29:39;62.83;;;38.45;;
10945;SDS011;5525;42.648;23.368;2022-11-15T02:32:27;57.45;;;36.38;;
10945;SDS011;5525;42.648;23.368;2022-11-15T02:35:02;62.67;;;35.42;;
10945;SDS011;5525;42.648;23.368;2022-11-15T02:37:34;57.28;;;35.00;;
10945;SDS011;5525;42.648;23.368;2022-11-15T02:40:10;55.88;;;34.67;;
10945;SDS011;5525;42.648;23.368;2022-11-15T02:42:44;56.00;;;36.25;;
10945;SDS011;5525;42.648;23.368;2022-11-15T02:45:35;64.43;;;38.50;;
10945;SDS011;5525;42.648;23.368;2022-11-15T02:48:07;59.67;;;38.17;;
10945;SDS011;5525;42.648;23.368;2022-11-15T02:50:37;64.30;;;39.33;;
10945;SDS011;5525;42.648;23.368;2022-11-15T02:53:04;62.63;;;36.15;;
10945;SDS011;5525;42.648;23.368;2022-11-15T02:55:31;63.15;;;39.28;;
10945;SDS011;5525;42.648;23.368;2022-11-15T02:58:05;63.10;;;38.90;;
10945;SDS011;5525;42.648;23.368;2022-11-15T03:00:47;66.82;;;43.63;;
10945;SDS011;5525;42.648;23.368;2022-11-15T03:03:30;72.03;;;44.80;;
10945;SDS011;5525;42.648;23.368;2022-11-15T03:06:13;65.75;;;42.25;;
10945;SDS011;5525;42.648;23.368;2022-11-15T03:08:49;62.20;;;41.55;;
10945;SDS011;5525;42.648;23.368;2022-11-15T03:11:23;58.35;;;36.35;;
10945;SDS011;5525;42.648;23.368;2022-11-15T03:13:53;52.88;;;34.22;;
10945;SDS011;5525;42.648;23.368;2022-11-15T03:16:26;54.00;;;32.50;;
10945;SDS011;5525;42.648;23.368;2022-11-15T03:18:59;52.50;;;30.88;;
10945;SDS011;5525;42.648;23.368;2022-11-15T03:21:32;53.35;;;30.70;;
10945;SDS011;5525;42.648;23.368;2022-11-15T03:24:03;52.45;;;31.00;;
10945;SDS011;5525;42.648;23.368;2022-11-15T03:26:34;58.05;;;34.25;;
10945;SDS011;5525;42.648;23.368;2022-11-15T03:29:04;50.30;;;28.15;;
10945;SDS011;5525;42.648;23.368;2022-11-15T03:31:36;55.72;;;32.13;;
10945;SDS011;5525;42.648;23.368;2022-11-15T03:34:19;58.50;;;34.60;;
10945;SDS011;5525;42.648;23.368;2022-11-15T03:36:50;58.13;;;34.97;;
10945;SDS011;5525;42.648;23.368;2022-11-15T03:39:18;57.97;;;35.25;;
10945;SDS011;5525;42.648;23.368;2022-11-15T03:41:48;65.05;;;34.30;;
10945;SDS011;5525;42.648;23.368;2022-11-15T03:44:20;64.05;;;38.10;;
10945;SDS011;5525;42.648;23.368;2022-11-15T03:47:00;53.08;;;33.90;;
10945;SDS011;5525;42.648;23.368;2022-11-15T03:49:34;55.22;;;32.88;;
10945;SDS011;5525;42.648;23.368;2022-11-15T03:52:03;57.88;;;33.63;;
10945;SDS011;5525;42.648;23.368;2022-11-15T03:54:31;58.92;;;33.22;;
10945;SDS011;5525;42.648;23.368;2022-11-15T03:56:57;60.53;;;36.03;;
10945;SDS011;5525;42.648;23.368;2022-11-15T03:59:24;56.95;;;35.08;;
10945;SDS011;5525;42.648;23.368;2022-11-15T04:01:51;60.25;;;36.10;;
10945;SDS011;5525;42.648;23.368;2022-11-15T04:04:18;59.63;;;35.42;;
10945;SDS011;5525;42.648;23.368;2022-11-15T04:06:47;55.35;;;34.38;;
10945;SDS011;5525;42.648;23.368;2022-11-15T04:09:13;54.60;;;33.45;;
10945;SDS011;5525;42.648;23.368;2022-11-15T04:11:40;57.53;;;33.80;;
10945;SDS011;5525;42.648;23.368;2022-11-15T04:14:07;65.15;;;36.05;;
10945;SDS011;5525;42.648;23.368;2022-11-15T04:16:34;53.90;;;33.10;;
10945;SDS011;5525;42.648;23.368;2022-11-15T04:19:01;26.17;;;16.67;;
10945;SDS011;5525;42.648;23.368;2022-11-15T04:21:46;22.70;;;15.18;;
10945;SDS011;5525;42.648;23.368;2022-11-15T04:24:30;25.73;;;17.60;;
10945;SDS011;5525;42.648;23.368;2022-11-15T04:26:57;29.40;;;19.48;;
10945;SDS011;5525;42.648;23.368;2022-11-15T04:29:24;34.75;;;22.45;;
10945;SDS011;5525;42.648;23.368;2022-11-15T04:32:01;36.60;;;24.67;;
10945;SDS011;5525;42.648;23.368;2022-11-15T04:34:28;54.85;;;27.63;;
10945;SDS011;5525;42.648;23.368;2022-11-15T04:36:56;53.67;;;28.10;;
10945;SDS011;5525;42.648;23.368;2022-11-15T04:39:38;63.50;;;30.88;;
10945;SDS011;5525;42.648;23.368;2022-11-15T04:42:05;54.63;;;30.02;;
10945;SDS011;5525;42.648;23.368;2022-11-15T04:44:32;67.30;;;33.47;;
10945;SDS011;5525;42.648;23.368;2022-11-15T04:47:00;69.20;;;33.13;;
10945;SDS011;5525;42.648;23.368;2022-11-15T04:49:27;63.67;;;32.85;;
10945;SDS011;5525;42.648;23.368;2022-11-15T04:51:54;73.32;;;32.53;;
10945;SDS011;5525;42.648;23.368;2022-11-15T04:54:22;101.93;;;32.92;;
10945;SDS011;5525;42.648;23.368;2022-11-15T04:56:49;64.68;;;31.42;;
10945;SDS011;5525;42.648;23.368;2022-11-15T04:59:16;61.17;;;30.33;;
10945;SDS011;5525;42.648;23.368;2022-11-15T05:01:42;64.28;;;30.13;;
10945;SDS011;5525;42.648;23.368;2022-11-15T05:04:09;83.43;;;29.83;;
10945;SDS011;5525;42.648;23.368;2022-11-15T05:06:44;72.32;;;29.10;;
10945;SDS011;5525;42.648;23.368;2022-11-15T05:09:12;72.88;;;28.45;;
10945;SDS011;5525;42.648;23.368;2022-11-15T05:11:39;81.60;;;29.45;;
10945;SDS011;5525;42.648;23.368;2022-11-15T05:14:06;73.32;;;29.33;;
10945;SDS011;5525;42.648;23.368;2022-11-15T05:16:33;59.70;;;29.10;;
10945;SDS011;5525;42.648;23.368;2022-11-15T05:19:00;93.85;;;30.25;;
10945;SDS011;5525;42.648;23.368;2022-11-15T05:21:28;93.57;;;30.25;;
10945;SDS011;5525;42.648;23.368;2022-11-15T05:23:55;60.47;;;30.52;;
10945;SDS011;5525;42.648;23.368;2022-11-15T05:26:23;84.63;;;27.75;;
10945;SDS011;5525;42.648;23.368;2022-11-15T05:28:54;62.42;;;27.42;;
10945;SDS011;5525;42.648;23.368;2022-11-15T05:31:22;64.57;;;28.35;;
10945;SDS011;5525;42.648;23.368;2022-11-15T05:33:50;93.68;;;29.05;;
10945;SDS011;5525;42.648;23.368;2022-11-15T05:36:18;75.95;;;29.45;;
10945;SDS011;5525;42.648;23.368;2022-11-15T05:38:51;82.65;;;31.00;;
10945;SDS011;5525;42.648;23.368;2022-11-15T05:41:19;90.38;;;30.60;;
10945;SDS011;5525;42.648;23.368;2022-11-15T05:43:50;83.25;;;29.02;;
10945;SDS011;5525;42.648;23.368;2022-11-15T05:46:18;67.53;;;30.50;;
10945;SDS011;5525;42.648;23.368;2022-11-15T05:48:46;64.28;;;29.13;;
10945;SDS011;5525;42.648;23.368;2022-11-15T05:51:16;51.90;;;26.10;;
10945;SDS011;5525;42.648;23.368;2022-11-15T05:53:45;47.60;;;26.63;;
10945;SDS011;5525;42.648;23.368;2022-11-15T05:56:13;43.38;;;25.13;;
10945;SDS011;5525;42.648;23.368;2022-11-15T05:58:40;52.55;;;27.50;;
10945;SDS011;5525;42.648;23.368;2022-11-15T06:01:09;49.25;;;27.77;;
10945;SDS011;5525;42.648;23.368;2022-11-15T06:03:36;40.65;;;22.85;;
10945;SDS011;5525;42.648;23.368;2022-11-15T06:06:04;46.63;;;23.50;;
10945;SDS011;5525;42.648;23.368;2022-11-15T06:08:30;42.47;;;24.55;;
10945;SDS011;5525;42.648;23.368;2022-11-15T06:11:02;48.08;;;25.80;;
10945;SDS011;5525;42.648;23.368;2022-11-15T06:13:30;43.47;;;25.70;;
10945;SDS011;5525;42.648;23.368;2022-11-15T06:15:57;41.22;;;24.58;;
10945;SDS011;5525;42.648;23.368;2022-11-15T06:18:25;44.20;;;24.52;;
10945;SDS011;5525;42.648;23.368;2022-11-15T06:20:52;38.95;;;23.42;;
10945;SDS011;5525;42.648;23.368;2022-11-15T06:23:21;38.38;;;22.48;;
10945;SDS011;5525;42.648;23.368;2022-11-15T06:25:48;32.03;;;21.20;;
10945;SDS011;5525;42.648;23.368;2022-11-15T06:28:15;36.25;;;22.88;;
10945;SDS011;5525;42.648;23.368;2022-11-15T06:30:41;38.65;;;23.63;;
10945;SDS011;5525;42.648;23.368;2022-11-15T06:33:08;73.82;;;22.15;;
10945;SDS011;5525;42.648;23.368;2022-11-15T06:35:36;48.10;;;22.20;;
10945;SDS011;5525;42.648;23.368;2022-11-15T06:38:04;43.45;;;21.13;;
10945;SDS011;5525;42.648;23.368;2022-11-15T06:40:33;45.55;;;22.95;;
10945;SDS011;5525;42.648;23.368;2022-11-15T06:43:01;59.78;;;24.30;;
10945;SDS011;5525;42.648;23.368;2022-11-15T06:45:29;69.50;;;25.88;;
10945;SDS011;5525;42.648;23.368;2022-11-15T06:47:56;58.03;;;24.90;;
10945;SDS011;5525;42.648;23.368;2022-11-15T06:50:23;65.38;;;26.48;;
10945;SDS011;5525;42.648;23.368;2022-11-15T06:52:52;48.60;;;23.67;;
10945;SDS011;5525;42.648;23.368;2022-11-15T06:55:19;58.35;;;27.25;;
10945;SDS011;5525;42.648;23.368;2022-11-15T06:57:46;63.08;;;31.70;;
10945;SDS011;5525;42.648;23.368;2022-11-15T07:00:14;56.35;;;27.92;;
10945;SDS011;5525;42.648;23.368;2022-11-15T07:02:42;66.55;;;31.75;;
10945;SDS011;5525;42.648;23.368;2022-11-15T07:05:09;62.10;;;33.15;;
10945;SDS011;5525;42.648;23.368;2022-11-15T07:07:36;70.13;;;34.83;;
10945;SDS011;5525;42.648;23.368;2022-11-15T07:10:05;77.65;;;35.72;;
10945;SDS011;5525;42.648;23.368;2022-11-15T07:12:33;78.00;;;38.53;;
10945;SDS011;5525;42.648;23.368;2022-11-15T07:15:00;79.00;;;37.70;;
10945;SDS011;5525;42.648;23.368;2022-11-15T07:17:27;76.25;;;36.95;;
10945;SDS011;5525;42.648;23.368;2022-11-15T07:19:54;78.05;;;37.05;;
10945;SDS011;5525;42.648;23.368;2022-11-15T07:22:20;70.82;;;36.13;;
10945;SDS011;5525;42.648;23.368;2022-11-15T07:24:47;84.70;;;38.17;;
10945;SDS011;5525;42.648;23.368;2022-11-15T07:27:16;89.45;;;37.55;;
10945;SDS011;5525;42.648;23.368;2022-11-15T07:29:45;81.22;;;38.50;;
10945;SDS011;5525;42.648;23.368;2022-11-15T07:32:12;74.07;;;37.00;;
10945;SDS011;5525;42.648;23.368;2022-11-15T07:34:39;80.07;;;37.17;;
10945;SDS011;5525;42.648;23.368;2022-11-15T07:37:05;88.13;;;38.63;;
10945;SDS011;5525;42.648;23.368;2022-11-15T07:39:32;83.97;;;38.88;;
10945;SDS011;5525;42.648;23.368;2022-11-15T07:41:59;84.60;;;38.33;;
10945;SDS011;5525;42.648;23.368;2022-11-15T07:44:45;79.13;;;37.85;;
10945;SDS011;5525;42.648;23.368;2022-11-15T07:47:12;75.70;;;37.60;;
10945;SDS011;5525;42.648;23.368;2022-11-15T07:49:39;75.80;;;38.75;;
10945;SDS011;5525;42.648;23.368;2022-11-15T07:52:06;77.18;;;37.78;;
10945;SDS011;5525;42.648;23.368;2022-11-15T07:54:33;82.95;;;38.83;;
10945;SDS011;5525;42.648;23.368;2022-11-15T07:56:59;88.68;;;40.03;;
10945;SDS011;5525;42.648;23.368;2022-11-15T07:59:26;73.43;;;37.28;;
10945;SDS011;5525;42.648;23.368;2022-11-15T08:01:55;69.50;;;37.90;;
10945;SDS011;5525;42.648;23.368;2022-11-15T08:04:22;71.43;;;37.63;;
10945;SDS011;5525;42.648;23.368;2022-11-15T08:06:49;69.78;;;36.47;;
10945;SDS011;5525;42.648;23.368;2022-11-15T08:09:15;66.88;;;34.92;;
10945;SDS011;5525;42.648;23.368;2022-11-15T08:11:42;70.00;;;36.13;;
10945;SDS011;5525;42.648;23.368;2022-11-15T08:14:09;62.50;;;32.97;;
10945;SDS011;5525;42.648;23.368;2022-11-15T08:16:36;64.85;;;36.08;;
10945;SDS011;5525;42.648;23.368;2022-11-15T08:19:04;64.30;;;33.58;;
10945;SDS011;5525;42.648;23.368;2022-11-15T08:21:31;60.80;;;33.72;;
10945;SDS011;5525;42.648;23.368;2022-11-15T08:23:58;67.13;;;35.35;;
10945;SDS011;5525;42.648;23.368;2022-11-15T08:26:25;67.18;;;36.53;;
10945;SDS011;5525;42.648;23.368;2022-11-15T08:28:55;65.82;;;35.22;;
10945;SDS011;5525;42.648;23.368;2022-11-15T08:31:21;59.47;;;33.92;;
10945;SDS011;5525;42.648;23.368;2022-11-15T08:33:48;62.78;;;33.83;;
10945;SDS011;5525;42.648;23.368;2022-11-15T08:36:17;62.25;;;34.45;;
10945;SDS011;5525;42.648;23.368;2022-11-15T08:38:44;65.03;;;35.65;;
10945;SDS011;5525;42.648;23.368;2022-11-15T08:41:12;63.20;;;34.65;;
10945;SDS011;5525;42.648;23.368;2022-11-15T08:43:45;61.45;;;34.60;;
10945;SDS011;5525;42.648;23.368;2022-11-15T08:46:12;66.28;;;34.85;;
10945;SDS011;5525;42.648;23.368;2022-11-15T08:48:40;60.17;;;34.42;;
10945;SDS011;5525;42.648;23.368;2022-11-15T08:51:06;63.30;;;35.08;;
10945;SDS011;5525;42.648;23.368;2022-11-15T08:53:35;68.00;;;35.60;;
10945;SDS011;5525;42.648;23.368;2022-11-15T08:56:01;62.58;;;35.05;;
10945;SDS011;5525;42.648;23.368;2022-11-15T08:58:29;66.50;;;36.78;;
10945;SDS011;5525;42.648;23.368;2022-11-15T09:00:56;68.57;;;37.22;;
10945;SDS011;5525;42.648;23.368;2022-11-15T09:03:23;70.40;;;36.75;;
10945;SDS011;5525;42.648;23.368;2022-11-15T09:05:53;64.68;;;37.40;;
10945;SDS011;5525;42.648;23.368;2022-11-15T09:08:21;71.13;;;38.28;;
10945;SDS011;5525;42.648;23.368;2022-11-15T09:10:49;62.58;;;36.15;;
10945;SDS011;5525;42.648;23.368;2022-11-15T09:13:16;69.95;;;37.53;;
10945;SDS011;5525;42.648;23.368;2022-11-15T09:15:43;64.57;;;36.55;;
10945;SDS011;5525;42.648;23.368;2022-11-15T09:18:10;62.35;;;36.33;;
10945;SDS011;5525;42.648;23.368;2022-11-15T09:20:37;60.53;;;36.53;;
10945;SDS011;5525;42.648;23.368;2022-11-15T09:23:04;62.08;;;37.05;;
10945;SDS011;5525;42.648;23.368;2022-11-15T09:25:31;65.75;;;36.08;;
10945;SDS011;5525;42.648;23.368;2022-11-15T09:28:00;66.97;;;38.55;;
10945;SDS011;5525;42.648;23.368;2022-11-15T09:30:26;68.13;;;37.88;;
10945;SDS011;5525;42.648;23.368;2022-11-15T09:32:53;66.53;;;37.90;;
10945;SDS011;5525;42.648;23.368;2022-11-15T09:35:20;63.45;;;36.80;;
10945;SDS011;5525;42.648;23.368;2022-11-15T09:37:47;64.78;;;37.70;;
10945;SDS011;5525;42.648;23.368;2022-11-15T09:40:14;63.42;;;37.10;;
10945;SDS011;5525;42.648;23.368;2022-11-15T09:42:54;61.30;;;36.83;;
10945;SDS011;5525;42.648;23.368;2022-11-15T09:45:42;63.63;;;36.58;;
10945;SDS011;5525;42.648;23.368;2022-11-15T09:48:29;65.55;;;38.00;;
10945;SDS011;5525;42.648;23.368;2022-11-15T09:51:04;58.67;;;36.38;;
10945;SDS011;5525;42.648;23.368;2022-11-15T09:53:41;61.60;;;38.38;;
10945;SDS011;5525;42.648;23.368;2022-11-15T09:56:19;71.57;;;39.55;;
10945;SDS011;5525;42.648;23.368;2022-11-15T09:58:50;62.80;;;37.60;;
10945;SDS011;5525;42.648;23.368;2022-11-15T10:01:34;60.38;;;35.35;;
10945;SDS011;5525;42.648;23.368;2022-11-15T10:04:07;64.20;;;38.60;;
10945;SDS011;5525;42.648;23.368;2022-11-15T10:06:34;61.58;;;37.60;;
10945;SDS011;5525;42.648;23.368;2022-11-15T10:09:07;60.28;;;38.42;;
10945;SDS011;5525;42.648;23.368;2022-11-15T10:11:41;63.42;;;38.30;;
10945;SDS011;5525;42.648;23.368;2022-11-15T10:14:11;63.33;;;38.22;;
10945;SDS011;5525;42.648;23.368;2022-11-15T10:16:48;63.90;;;38.50;;
10945;SDS011;5525;42.648;23.368;2022-11-15T10:19:31;69.43;;;39.05;;
10945;SDS011;5525;42.648;23.368;2022-11-15T10:22:11;72.68;;;39.95;;
10945;SDS011;5525;42.648;23.368;2022-11-15T10:24:45;64.97;;;38.63;;
10945;SDS011;5525;42.648;23.368;2022-11-15T10:27:13;69.47;;;38.95;;
10945;SDS011;5525;42.648;23.368;2022-11-15T10:29:44;70.45;;;38.75;;
10945;SDS011;5525;42.648;23.368;2022-11-15T10:32:12;70.20;;;39.28;;
10945;SDS011;5525;42.648;23.368;2022-11-15T10:34:40;68.90;;;39.25;;
10945;SDS011;5525;42.648;23.368;2022-11-15T10:37:07;65.10;;;39.35;;
10945;SDS011;5525;42.648;23.368;2022-11-15T10:39:34;69.78;;;39.53;;
10945;SDS011;5525;42.648;23.368;2022-11-15T10:42:15;64.60;;;39.40;;
10945;SDS011;5525;42.648;23.368;2022-11-15T10:44:44;64.38;;;38.53;;
10945;SDS011;5525;42.648;23.368;2022-11-15T10:47:21;65.22;;;38.95;;
10945;SDS011;5525;42.648;23.368;2022-11-15T10:49:54;70.03;;;39.40;;
10945;SDS011;5525;42.648;23.368;2022-11-15T10:52:23;55.85;;;33.35;;
10945;SDS011;5525;42.648;23.368;2022-11-15T10:54:51;62.20;;;34.22;;
10945;SDS011;5525;42.648;23.368;2022-11-15T10:57:23;56.55;;;32.90;;
10945;SDS011;5525;42.648;23.368;2022-11-15T10:59:54;55.90;;;32.13;;
10945;SDS011;5525;42.648;23.368;2022-11-15T11:02:26;58.50;;;33.35;;
10945;SDS011;5525;42.648;23.368;2022-11-15T11:04:56;53.72;;;31.63;;
10945;SDS011;5525;42.648;23.368;2022-11-15T11:07:23;57.58;;;33.10;;
10945;SDS011;5525;42.648;23.368;2022-11-15T11:09:56;58.35;;;33.25;;
10945;SDS011;5525;42.648;23.368;2022-11-15T11:12:27;57.95;;;32.90;;
10945;SDS011;5525;42.648;23.368;2022-11-15T11:14:58;59.83;;;33.47;;
10945;SDS011;5525;42.648;23.368;2022-11-15T11:17:30;57.95;;;34.10;;
10945;SDS011;5525;42.648;23.368;2022-11-15T11:20:04;59.42;;;33.97;;
10945;SDS011;5525;42.648;23.368;2022-11-15T11:22:38;52.63;;;32.40;;
10945;SDS011;5525;42.648;23.368;2022-11-15T11:25:19;60.70;;;33.53;;
10945;SDS011;5525;42.648;23.368;2022-11-15T11:27:58;59.95;;;33.35;;
10945;SDS011;5525;42.648;23.368;2022-11-15T11:30:34;58.53;;;33.80;;
10945;SDS011;5525;42.648;23.368;2022-11-15T11:33:13;54.03;;;34.13;;
10945;SDS011;5525;42.648;23.368;2022-11-15T11:35:47;55.17;;;34.08;;
10945;SDS011;5525;42.648;23.368;2022-11-15T11:38:32;59.60;;;34.35;;
10945;SDS011;5525;42.648;23.368;2022-11-15T11:41:08;56.03;;;33.47;;
10945;SDS011;5525;42.648;23.368;2022-11-15T11:43:46;60.13;;;34.95;;
10945;SDS011;5525;42.648;23.368;2022-11-15T11:46:26;63.28;;;35.15;;
10945;SDS011;5525;42.648;23.368;2022-11-15T11:49:08;58.80;;;35.33;;
10945;SDS011;5525;42.648;23.368;2022-11-15T11:51:38;61.30;;;34.78;;
10945;SDS011;5525;42.648;23.368;2022-11-15T11:54:11;62.50;;;35.92;;
10945;SDS011;5525;42.648;23.368;2022-11-15T11:56:41;60.85;;;36.35;;
10945;SDS011;5525;42.648;23.368;2022-11-15T11:59:12;60.75;;;34.80;;
10945;SDS011;5525;42.648;23.368;2022-11-15T12:01:46;59.20;;;34.78;;
10945;SDS011;5525;42.648;23.368;2022-11-15T12:04:14;65.40;;;35.60;;
10945;SDS011;5525;42.648;23.368;2022-11-15T12:06:46;75.53;;;37.70;;
10945;SDS011;5525;42.648;23.368;2022-11-15T12:09:17;58.03;;;34.13;;
10945;SDS011;5525;42.648;23.368;2022-11-15T12:11:51;58.30;;;35.47;;
10945;SDS011;5525;42.648;23.368;2022-11-15T12:14:25;65.70;;;35.72;;
10945;SDS011;5525;42.648;23.368;2022-11-15T12:17:00;63.83;;;35.60;;
10945;SDS011;5525;42.648;23.368;2022-11-15T12:19:27;59.17;;;34.95;;
10945;SDS011;5525;42.648;23.368;2022-11-15T12:21:56;56.03;;;34.78;;
10945;SDS011;5525;42.648;23.368;2022-11-15T12:24:29;60.53;;;35.17;;
10945;SDS011;5525;42.648;23.368;2022-11-15T12:27:01;59.40;;;37.13;;
10945;SDS011;5525;42.648;23.368;2022-11-15T12:29:35;59.63;;;37.38;;
10945;SDS011;5525;42.648;23.368;2022-11-15T12:32:11;54.28;;;35.97;;
10945;SDS011;5525;42.648;23.368;2022-11-15T12:34:48;51.60;;;34.80;;
10945;SDS011;5525;42.648;23.368;2022-11-15T12:40:23;51.72;;;34.53;;
10945;SDS011;5525;42.648;23.368;2022-11-15T12:43:05;56.80;;;34.45;;
10945;SDS011;5525;42.648;23.368;2022-11-15T12:46:10;53.15;;;34.58;;
10945;SDS011;5525;42.648;23.368;2022-11-15T12:48:48;49.10;;;34.50;;
10945;SDS011;5525;42.648;23.368;2022-11-15T12:51:21;48.60;;;34.63;;
10945;SDS011;5525;42.648;23.368;2022-11-15T12:57:22;47.58;;;34.97;;
10945;SDS011;5525;42.648;23.368;2022-11-15T12:59:58;51.30;;;35.03;;
10945;SDS011;5525;42.648;23.368;2022-11-15T13:02:29;56.35;;;35.30;;
10945;SDS011;5525;42.648;23.368;2022-11-15T13:08:02;54.83;;;34.75;;
10945;SDS011;5525;42.648;23.368;2022-11-15T13:10:30;58.92;;;35.33;;
10945;SDS011;5525;42.648;23.368;2022-11-15T13:12:58;50.58;;;35.05;;
10945;SDS011;5525;42.648;23.368;2022-11-15T13:18:29;52.42;;;34.00;;
10945;SDS011;5525;42.648;23.368;2022-11-15T13:21:01;52.83;;;34.95;;
10945;SDS011;5525;42.648;23.368;2022-11-15T13:23:53;58.17;;;35.92;;
10945;SDS011;5525;42.648;23.368;2022-11-15T13:26:21;53.45;;;35.08;;
10945;SDS011;5525;42.648;23.368;2022-11-15T13:28:49;53.72;;;34.58;;
10945;SDS011;5525;42.648;23.368;2022-11-15T13:31:24;56.28;;;34.75;;
10945;SDS011;5525;42.648;23.368;2022-11-15T13:33:55;53.92;;;35.47;;
10945;SDS011;5525;42.648;23.368;2022-11-15T13:36:24;55.80;;;36.17;;
10945;SDS011;5525;42.648;23.368;2022-11-15T13:38:56;52.92;;;34.95;;
10945;SDS011;5525;42.648;23.368;2022-11-15T13:41:25;54.40;;;34.33;;
10945;SDS011;5525;42.648;23.368;2022-11-15T13:43:54;51.22;;;33.75;;
10945;SDS011;5525;42.648;23.368;2022-11-15T13:46:23;61.50;;;35.53;;
10945;SDS011;5525;42.648;23.368;2022-11-15T13:48:51;53.25;;;35.15;;
10945;SDS011;5525;42.648;23.368;2022-11-15T13:51:21;55.60;;;34.38;;
10945;SDS011;5525;42.648;23.368;2022-11-15T13:53:54;60.85;;;38.05;;
10945;SDS011;5525;42.648;23.368;2022-11-15T13:56:25;55.40;;;35.72;;
10945;SDS011;5525;42.648;23.368;2022-11-15T13:58:55;53.65;;;34.13;;
10945;SDS011;5525;42.648;23.368;2022-11-15T14:01:22;54.70;;;34.35;;
10945;SDS011;5525;42.648;23.368;2022-11-15T14:03:54;53.25;;;34.80;;
10945;SDS011;5525;42.648;23.368;2022-11-15T14:06:23;53.83;;;34.05;;
10945;SDS011;5525;42.648;23.368;2022-11-15T14:09:01;60.13;;;35.83;;
10945;SDS011;5525;42.648;23.368;2022-11-15T14:11:48;54.78;;;34.72;;
10945;SDS011;5525;42.648;23.368;2022-11-15T14:14:19;61.85;;;34.63;;
10945;SDS011;5525;42.648;23.368;2022-11-15T14:16:49;63.33;;;36.65;;
10945;SDS011;5525;42.648;23.368;2022-11-15T14:19:36;62.13;;;36.47;;
10945;SDS011;5525;42.648;23.368;2022-11-15T14:25:06;60.28;;;35.42;;
10945;SDS011;5525;42.648;23.368;2022-11-15T14:27:54;59.30;;;35.05;;
10945;SDS011;5525;42.648;23.368;2022-11-15T14:30:36;58.70;;;35.47;;
10945;SDS011;5525;42.648;23.368;2022-11-15T14:33:11;54.80;;;34.72;;
10945;SDS011;5525;42.648;23.368;2022-11-15T14:35:45;55.88;;;34.67;;
10945;SDS011;5525;42.648;23.368;2022-11-15T14:38:12;64.80;;;36.28;;
10945;SDS011;5525;42.648;23.368;2022-11-15T14:40:41;59.53;;;35.97;;
10945;SDS011;5525;42.648;23.368;2022-11-15T14:43:09;65.32;;;35.75;;
10945;SDS011;5525;42.648;23.368;2022-11-15T14:45:37;59.42;;;35.10;;
10945;SDS011;5525;42.648;23.368;2022-11-15T14:48:04;66.70;;;38.83;;
10945;SDS011;5525;42.648;23.368;2022-11-15T14:50:31;67.00;;;40.20;;
10945;SDS011;5525;42.648;23.368;2022-11-15T14:52:59;71.97;;;42.53;;
10945;SDS011;5525;42.648;23.368;2022-11-15T14:55:27;83.28;;;44.92;;
10945;SDS011;5525;42.648;23.368;2022-11-15T14:57:58;81.38;;;47.63;;